createdAt,value
2022-10-11T00:04:10.866Z,0.93
2022-10-11T00:09:13.108Z,0.90
2022-10-11T00:14:16.606Z,0.73
2022-10-11T00:19:18.864Z,0.83
2022-10-11T00:24:20.905Z,1.00
2022-10-11T00:29:24.281Z,1.00
2022-10-11T00:34:26.245Z,0.77
2022-10-11T00:39:28.331Z,1.00
2022-10-11T00:44:33.237Z,0.90
2022-10-11T00:49:37.508Z,1.27
2022-10-11T00:54:43.421Z,0.70
2022-10-11T00:59:50.618Z,1.30
2022-10-11T01:05:11.339Z,1.20
2022-10-11T01:10:15.648Z,1.67
2022-10-11T01:15:25.545Z,0.90
2022-10-11T01:20:37.386Z,1.07
2022-10-11T01:25:51.899Z,0.70
2022-10-11T01:31:01.069Z,0.73
2022-10-11T01:36:11.628Z,1.00
2022-10-11T01:41:19.104Z,1.03
2022-10-11T01:46:24.157Z,1.17
2022-10-11T01:51:29.302Z,1.43
2022-10-11T01:56:47.902Z,1.13
2022-10-11T02:01:59.548Z,1.20
2022-10-11T02:07:07.504Z,0.83
2022-10-11T02:12:12.520Z,1.67
2022-10-11T02:17:18.553Z,1.70
2022-10-11T02:22:24.809Z,1.30
2022-10-11T02:27:30.396Z,1.37
2022-10-11T02:32:36.172Z,1.03
2022-10-11T02:37:43.025Z,0.90
2022-10-11T02:42:53.841Z,1.40
2022-10-11T02:47:58.404Z,1.47
2022-10-11T02:53:00.304Z,1.43
2022-10-11T02:58:02.978Z,1.73
2022-10-11T03:03:05.949Z,1.20
2022-10-11T03:08:08.399Z,1.57
2022-10-11T03:13:12.835Z,1.90
2022-10-11T03:18:18.186Z,1.53
2022-10-11T03:23:20.190Z,1.90
2022-10-11T03:28:22.499Z,1.83
2022-10-11T03:33:25.827Z,1.93
2022-10-11T03:38:27.966Z,1.90
2022-10-11T03:43:29.644Z,1.90
2022-10-11T03:48:33.441Z,2.30
2022-10-11T03:53:35.599Z,2.00
2022-10-11T03:58:37.892Z,2.20
2022-10-11T04:03:41.421Z,2.03
2022-10-11T04:08:43.116Z,2.40
2022-10-11T04:13:46.226Z,2.10
2022-10-11T04:18:49.524Z,2.07
2022-10-11T04:23:51.599Z,2.20
2022-10-11T04:28:53.650Z,2.10
2022-10-11T04:33:56.697Z,1.90
2022-10-11T04:38:58.982Z,2.03
2022-10-11T04:44:01.412Z,2.10
2022-10-11T04:49:04.430Z,2.93
2022-10-11T04:54:06.087Z,2.70
2022-10-11T04:59:08.007Z,1.97
2022-10-11T05:04:11.030Z,3.17
2022-10-11T05:09:13.215Z,2.47
2022-10-11T05:14:14.968Z,1.83
2022-10-11T05:19:18.366Z,2.63
2022-10-11T05:24:20.409Z,2.50
2022-10-11T05:29:22.079Z,2.43
2022-10-11T05:34:25.189Z,2.23
2022-10-11T05:39:26.957Z,2.27
2022-10-11T05:44:29.203Z,2.73
2022-10-11T05:49:32.405Z,2.67
2022-10-11T05:54:34.323Z,2.57
2022-10-11T05:59:36.497Z,2.40
2022-10-11T06:04:39.969Z,2.23
2022-10-11T06:09:41.617Z,2.40
2022-10-11T06:14:43.320Z,2.47
2022-10-11T06:19:57.599Z,2.83
2022-10-11T06:24:59.775Z,2.10
2022-10-11T06:30:01.942Z,2.57
2022-10-11T06:35:06.522Z,2.10
2022-10-11T06:40:09.090Z,2.27
2022-10-11T06:45:11.119Z,2.17
2022-10-11T06:50:14.410Z,1.73
2022-10-11T06:55:16.500Z,1.97
2022-10-11T07:00:18.886Z,2.30
2022-10-11T07:05:22.274Z,2.00
2022-10-11T07:10:24.256Z,2.20
2022-10-11T07:15:26.409Z,1.77
2022-10-11T07:20:29.535Z,2.20
2022-10-11T07:25:31.599Z,1.87
2022-10-11T07:30:33.289Z,1.97
2022-10-11T07:35:36.746Z,2.17
2022-10-11T07:40:42.384Z,2.30
2022-10-11T07:45:44.845Z,1.80
2022-10-11T07:50:48.330Z,1.60
2022-10-11T07:55:49.945Z,1.63
2022-10-11T08:00:53.441Z,1.60
2022-10-11T08:06:00.155Z,1.73
2022-10-11T08:11:02.027Z,1.70
2022-10-11T08:16:10.158Z,1.83
2022-10-11T08:21:15.790Z,1.70
2022-10-11T08:26:17.666Z,1.57
2022-10-11T08:31:19.659Z,1.60
2022-10-11T08:36:23.373Z,1.47
2022-10-11T08:41:34.896Z,1.57
2022-10-11T08:46:39.005Z,2.07
2022-10-11T08:51:47.525Z,2.87
2022-10-11T08:56:50.641Z,1.70
2022-10-11T09:01:58.888Z,1.23
2022-10-11T09:07:07.363Z,1.30
2022-10-11T09:12:18.708Z,1.53
2022-10-11T09:17:36.154Z,1.13
2022-10-11T09:22:49.898Z,1.40
2022-10-11T09:28:05.443Z,1.63
2022-10-11T09:33:17.171Z,1.60
2022-10-11T09:38:31.402Z,1.27
2022-10-11T09:43:33.279Z,1.30
2022-10-11T09:48:40.311Z,1.40
2022-10-11T09:54:06.658Z,1.63
2022-10-11T09:59:25.944Z,1.20
2022-10-11T10:04:28.121Z,1.10
2022-10-11T10:09:31.639Z,1.03
2022-10-11T10:14:33.799Z,1.13
2022-10-11T10:19:45.090Z,1.02
2022-10-11T10:24:50.165Z,1.47
2022-10-11T10:30:19.359Z,0.93
2022-10-11T10:35:38.308Z,1.25
2022-10-11T10:40:45.625Z,1.20
2022-10-11T10:46:09.884Z,0.77
2022-10-11T10:51:21.973Z,1.10
2022-10-11T10:56:31.559Z,1.10
2022-10-11T11:01:38.031Z,1.00
2022-10-11T11:06:48.980Z,1.37
2022-10-11T11:12:03.484Z,1.00
2022-10-11T11:17:15.018Z,1.20
2022-10-11T11:22:32.484Z,1.10
2022-10-11T11:27:49.927Z,0.80
2022-10-11T11:33:04.030Z,1.13
2022-10-11T11:38:14.871Z,1.10
2022-10-11T11:43:25.150Z,0.87
2022-10-11T11:48:27.382Z,1.90
2022-10-11T11:53:43.842Z,1.00
2022-10-11T11:58:53.664Z,0.80
2022-10-11T12:04:01.434Z,0.90
2022-10-11T12:09:08.138Z,0.80
2022-10-11T12:14:29.637Z,1.10
2022-10-11T12:19:31.850Z,0.70
2022-10-11T12:24:55.818Z,1.00
2022-10-11T12:29:59.212Z,1.03
2022-10-11T12:35:39.626Z,1.00
2022-10-11T12:40:43.090Z,0.87
2022-10-11T12:45:46.741Z,0.80
2022-10-11T12:51:02.953Z,1.10
2022-10-11T12:56:11.521Z,0.83
2022-10-11T13:01:25.520Z,0.80
2022-10-11T13:06:30.158Z,0.70
2022-10-11T13:11:35.776Z,1.37
2022-10-11T13:16:56.373Z,0.97
2022-10-11T13:22:00.555Z,0.97
2022-10-11T13:27:03.169Z,1.30
2022-10-11T13:32:13.539Z,1.00
2022-10-11T13:37:18.925Z,1.80
2022-10-11T13:42:25.974Z,2.17
2022-10-11T13:47:31.705Z,1.43
2022-10-11T13:52:34.366Z,0.90
2022-10-11T13:57:39.746Z,0.97
2022-10-11T14:02:48.337Z,1.00
2022-10-11T14:07:50.127Z,1.00
2022-10-11T14:13:21.025Z,1.07
2022-10-11T14:18:43.214Z,1.00
2022-10-11T14:23:45.009Z,1.00
2022-10-11T14:28:51.875Z,0.97
2022-10-11T14:33:56.046Z,1.03
2022-10-11T14:38:57.750Z,1.40
2022-10-11T14:43:59.356Z,1.00
2022-10-11T14:49:02.330Z,1.00
2022-10-11T14:54:04.735Z,0.60
2022-10-11T14:59:07.108Z,1.17
2022-10-11T15:04:10.626Z,1.13
2022-10-11T15:09:12.800Z,1.40
2022-10-11T15:14:14.711Z,1.40
2022-10-11T15:19:20.788Z,1.13
2022-10-11T15:24:22.743Z,1.13
2022-10-11T15:29:24.756Z,1.10
2022-10-11T15:34:28.579Z,0.87
2022-10-11T15:39:31.452Z,1.00
2022-10-11T15:44:34.522Z,2.33
2022-10-11T15:49:38.758Z,1.70
2022-10-11T15:54:41.315Z,1.30
2022-10-11T15:59:43.175Z,1.27
2022-10-11T16:04:47.195Z,0.97
2022-10-11T16:09:49.660Z,1.30
2022-10-11T16:14:52.307Z,1.03
2022-10-11T16:19:55.636Z,1.30
2022-10-11T16:24:57.913Z,1.43
2022-10-11T16:30:00.475Z,1.33
2022-10-11T16:35:04.426Z,1.40
2022-10-11T16:40:08.849Z,1.83
2022-10-11T16:45:11.205Z,1.50
2022-10-11T16:50:14.505Z,1.90
2022-10-11T16:55:16.683Z,1.70
2022-10-11T17:00:19.060Z,1.33
2022-10-11T17:05:22.505Z,1.43
2022-10-11T17:10:24.587Z,1.40
2022-10-11T17:15:26.760Z,1.20
2022-10-11T17:20:30.380Z,1.40
2022-10-11T17:25:32.289Z,2.10
2022-10-11T17:30:34.239Z,2.97
2022-10-11T17:35:37.234Z,3.30
2022-10-11T17:40:38.982Z,4.03
2022-10-11T17:45:40.825Z,4.10
2022-10-11T17:50:49.667Z,4.80
2022-10-11T17:55:52.595Z,2.47
2022-10-11T18:00:54.326Z,2.67
2022-10-11T18:05:57.487Z,2.87
2022-10-11T18:10:59.327Z,2.37
2022-10-11T18:16:01.467Z,2.20
2022-10-11T18:21:05.060Z,1.73
2022-10-11T18:26:11.529Z,1.60
2022-10-11T18:31:16.454Z,1.47
2022-10-11T18:36:22.193Z,2.00
2022-10-11T18:41:26.925Z,1.30
2022-10-11T18:46:29.667Z,1.70
2022-10-11T18:51:35.405Z,1.80
2022-10-11T18:56:38.210Z,2.17
2022-10-11T19:01:43.205Z,1.93
2022-10-11T19:06:48.653Z,1.90
2022-10-11T19:11:51.937Z,2.00
2022-10-11T19:16:56.153Z,1.63
2022-10-11T19:22:00.885Z,2.20
2022-10-11T19:27:03.224Z,1.50
2022-10-11T19:32:05.926Z,1.70
2022-10-11T19:37:10.328Z,1.97
2022-10-11T19:42:12.559Z,1.27
2022-10-11T19:47:15.203Z,1.40
2022-10-11T19:52:20.403Z,1.80
2022-10-11T19:57:22.531Z,1.77
2022-10-11T20:02:24.631Z,1.60
2022-10-11T20:07:28.231Z,1.83
2022-10-11T20:12:31.163Z,2.23
2022-10-11T20:17:34.012Z,2.00
2022-10-11T20:22:37.917Z,2.40
2022-10-11T20:27:39.818Z,2.50
2022-10-11T20:32:41.816Z,1.90
2022-10-11T20:37:44.829Z,2.00
2022-10-11T20:42:46.683Z,2.40
2022-10-11T20:47:48.375Z,2.20
2022-10-11T20:52:51.379Z,2.60
2022-10-11T20:57:53.557Z,1.67
2022-10-11T21:02:55.333Z,1.57
2022-10-11T21:07:58.284Z,1.73
2022-10-11T21:13:00.529Z,1.33
2022-10-11T21:18:02.435Z,1.93
2022-10-11T21:23:05.649Z,1.83
2022-10-11T21:28:07.958Z,1.70
2022-10-11T21:33:09.605Z,2.10
2022-10-11T21:38:12.673Z,1.70
2022-10-11T21:43:14.616Z,1.90
2022-10-11T21:48:16.511Z,1.80
2022-10-11T21:53:19.475Z,1.43
2022-10-11T21:58:21.400Z,1.60
2022-10-11T22:03:23.542Z,1.90
2022-10-11T22:08:26.881Z,2.00
2022-10-11T22:13:30.799Z,1.63
2022-10-11T22:18:33.806Z,2.50
2022-10-11T22:23:37.271Z,1.60
2022-10-11T22:28:39.042Z,2.03
2022-10-11T22:33:41.117Z,1.77
2022-10-11T22:38:45.069Z,1.73
2022-10-11T22:43:46.921Z,2.00
2022-10-11T22:48:48.959Z,2.13
2022-10-11T22:53:52.033Z,2.13
2022-10-11T22:58:54.083Z,2.27
2022-10-11T23:03:56.003Z,2.20
2022-10-11T23:08:59.231Z,2.53
2022-10-11T23:14:00.912Z,1.97
2022-10-11T23:19:02.917Z,2.63
2022-10-11T23:24:07.183Z,1.77
2022-10-11T23:29:08.910Z,2.43
2022-10-11T23:34:10.579Z,1.93
2022-10-11T23:39:14.036Z,2.10
2022-10-11T23:44:16.094Z,1.93
2022-10-11T23:49:18.159Z,2.00
2022-10-11T23:54:21.177Z,2.27
2022-10-11T23:59:22.792Z,1.80
